Flight Track Log - Related Links

Times and Time Zones

All times are in EDT time to prevent confusion due to time zone crossing. See the DAL268 flight status page for this flight to view local times or setup timezone preferences in your user account.

Time Position Orientation Groundspeed Altitude Reporting Facility
EDT Latitude Longitude Course Direction KTS MPH feet Rate Location/Type
Tue 02:23:25 PM 37.6140 -122.3810 199° South 18 21  Level FlightAware ADS-B
Tue 02:24:39 PM 37.6130 -122.3780 113° Southeast 16 18 29 Level FlightAware ADS-B
Tue 02:24:55 PM 37.6120 -122.3770 142° Southeast 32 37 31 Level FlightAware ADS-B
Tue 02:25:08 PM 37.6120 -122.3760 90° East 33 38 31 Level FlightAware ADS-B
Tue 02:25:31 PM 37.6110 -122.3760 180° South 31 36 31 Level FlightAware ADS-B
Tue 02:25:51 PM 37.6100 -122.3770 218° Southwest 26 30 32 Level FlightAware ADS-B
Tue 02:26:18 PM 37.6090 -122.3770 180° South 23 26 32 Level FlightAware ADS-B
Tue 02:26:47 PM 37.6080 -122.3780 218° Southwest 22 25 33 Level FlightAware ADS-B
Tue 02:27:15 PM 37.6070 -122.3790 218° Southwest 21 24 34 Level FlightAware ADS-B
Tue 02:27:53 PM 37.6060 -122.3800 218° Southwest 10 12 34 Level FlightAware ADS-B
Tue 02:30:00 PM 37.7057 -122.0690 63° Northeast  Level FlightAware Approximate
Tue 02:31:00 PM 37.7602 -121.9262 65° Northeast  Level FlightAware Approximate
Tue 02:32:00 PM 37.8066 -121.7802 67° East  Level FlightAware Approximate
Tue 02:33:00 PM 37.8574 -121.6353 58° Northeast  Level FlightAware Approximate
Tue 02:34:00 PM 37.8993 -121.4862 72° East  Level FlightAware Approximate
Tue 02:35:00 PM 37.9564 -121.3450 69° East  Level FlightAware Approximate
Tue 02:36:00 PM 38.0003 -121.1960 69° East  Level FlightAware Approximate
Tue 02:37:00 PM 38.0472 -121.0486 63° Northeast  Level FlightAware Approximate
Tue 02:38:00 PM 38.0904 -120.9005 70° East  Level FlightAware Approximate
Tue 02:39:00 PM 38.1222 -120.7467 70° East  Level FlightAware Approximate
Tue 02:40:00 PM 38.1641 -120.5964 70° East  Level FlightAware Approximate
Tue 02:41:00 PM 38.2027 -120.4449 81° East  Level FlightAware Approximate
Tue 02:42:00 PM 38.2276 -120.2888 73° East  Level FlightAware Approximate
Tue 02:43:00 PM 38.2648 -120.1363 73° East  Level FlightAware Approximate
Tue 02:44:00 PM 38.3018 -119.9837 73° East  Level FlightAware Approximate
Tue 02:45:00 PM 38.3386 -119.8308 73° East  Level FlightAware Approximate
Tue 02:46:10 PM 37.6070 -122.3810 360° North 10 12  Level FlightAware ADS-B
Tue 02:46:51 PM 37.6090 -122.3800 22° Northeast 58 67 494 Level FlightAware ADS-B
Tue 02:47:20 PM 37.6230 -122.3700 29° Northeast 955 Level FlightAware ADS-B
Tue 02:47:35 PM 37.6344 -122.3620 29° Northeast 169 194 700 2,842 Climbing FlightAware ADS-B
Tue 02:47:39 PM 37.6371 -122.3600 30° Northeast 170 196 900 2,400 Climbing FlightAware ADS-B
Tue 02:47:45 PM 37.6407 -122.3560 41° Northeast 174 200 1,100 2,500 Climbing FlightAware ADS-B
Tue 02:47:51 PM 37.6440 -122.3520 44° Northeast 177 204 1,400 1,909 Climbing FlightAware ADS-B
Tue 02:48:07 PM 37.6537 -122.3390 47° Northeast 199 229 1,800 1,355 Climbing FlightAware ADS-B
Tue 02:48:22 PM 37.6642 -122.3250 47° Northeast 218 251 2,100 1,655 Climbing FlightAware ADS-B
Tue 02:48:36 PM 37.6747 -122.3120 44° Northeast 233 268 2,600 1,862 Climbing FlightAware ADS-B
Tue 02:48:51 PM 37.6871 -122.2970 44° Northeast 252 290 3,000 1,548 Climbing FlightAware ADS-B
Tue 02:49:07 PM 37.7013 -122.2790 45° Northeast 275 316 3,400 2,129 Climbing FlightAware ADS-B
Tue 02:49:22 PM 37.7153 -122.2620 44° Northeast 279 321 4,100 3,000 Climbing FlightAware ADS-B
Tue 02:49:49 PM 37.7400 -122.2310 45° Northeast 284 327 5,500 2,933 Climbing FlightAware ADS-B
Tue 02:50:07 PM 37.7567 -122.2100 45° Northeast 286 329 6,300 2,769 Climbing FlightAware ADS-B
Tue 02:50:15 PM 37.7642 -122.2000 47° Northeast 289 333 6,700 2,538 Climbing FlightAware ADS-B
Tue 02:50:33 PM 37.7813 -122.1780 45° Northeast 294 338 7,400 2,545 Climbing FlightAware ADS-B
Tue 02:50:48 PM 37.7961 -122.1590 45° Northeast 300 345 8,100 2,516 Climbing FlightAware ADS-B
Tue 02:51:04 PM 37.8117 -122.1390 45° Northeast 304 350 8,700 2,323 Climbing FlightAware ADS-B
Tue 02:51:19 PM 37.8270 -122.1200 44° Northeast 308 354 9,300 2,438 Climbing FlightAware ADS-B
Tue 02:51:36 PM 37.8436 -122.0990 45° Northeast 310 357 10,000 1,787 Climbing FlightAware ADS-B
Tue 02:52:06 PM 37.8749 -122.0580 46° Northeast 337 388 10,700 1,200 Climbing FlightAware ADS-B
Tue 02:52:36 PM 37.9101 -122.0130 45° Northeast 370 426 11,200 1,161 Climbing FlightAware ADS-B
Tue 02:53:08 PM 37.9488 -121.9620 46° Northeast 395 455 11,900 1,565 Climbing FlightAware ADS-B
Tue 02:53:22 PM 37.9666 -121.9390 46° Northeast 398 458 12,400 2,160 Climbing FlightAware ADS-B
Tue 02:53:33 PM 37.9800 -121.9170 52° Northeast 401 461 12,800 2,160 Climbing FlightAware ADS-B
Tue 02:53:47 PM 37.9923 -121.8880 62° Northeast 404 465 13,300 2,250 Climbing FlightAware ADS-B
Tue 02:53:57 PM 37.9989 -121.8660 69° East 405 466 13,700 2,526 Climbing FlightAware ADS-B
Tue 02:54:06 PM 38.0028 -121.8440 77° East 407 468 14,100 2,073 Climbing FlightAware ADS-B
Tue 02:54:52 PM 38.0131 -121.7340 83° East 413 475 15,600 1,948 Climbing FlightAware ADS-B
Tue 02:55:23 PM 38.0196 -121.6590 84° East 428 493 16,600 1,857 Climbing FlightAware ADS-B
Tue 02:55:34 PM 38.0221 -121.6310 84° East 433 498 16,900 1,579 Climbing FlightAware ADS-B
Tue 02:55:42 PM 38.0252 -121.6100 79° East 436 502 17,100 2,087 Climbing FlightAware ADS-B
Tue 02:55:57 PM 38.0344 -121.5730 72° East 439 505 17,700 2,087 Climbing FlightAware ADS-B
Tue 02:56:28 PM 38.0560 -121.4980 70° East 446 513 18,700 1,714 Climbing FlightAware ADS-B
Tue 02:56:53 PM 38.0725 -121.4370 71° East 451 519 19,300 1,745 Climbing FlightAware ADS-B
Tue 02:57:23 PM 38.0873 -121.3580 77° East 456 525 20,300 1,875 Climbing FlightAware ADS-B
Tue 02:57:57 PM 38.1025 -121.2690 78° East 462 532 21,300 1,781 Climbing FlightAware ADS-B
Tue 02:58:27 PM 38.1169 -121.1890 77° East 466 536 22,200 1,672 Climbing FlightAware ADS-B
Tue 02:58:58 PM 38.1325 -121.1060 77° East 473 544 23,000 1,500 Climbing FlightAware ADS-B
Tue 02:59:39 PM 38.1539 -120.9950 76° East 481 554 24,000 1,418 Climbing FlightAware ADS-B
Tue 03:00:48 PM 38.1870 -120.8030 78° East 494 568 25,600 1,346 Climbing FlightAware ADS-B
Tue 03:01:26 PM 38.2060 -120.6950 77° East 500 575 26,400 1,200 Climbing FlightAware ADS-B
Tue 03:02:08 PM 38.2270 -120.5720 78° East 508 585 27,200 1,098 Climbing FlightAware ADS-B
Tue 03:02:48 PM 38.2470 -120.4560 78° East 515 593 27,900 1,071 Climbing FlightAware ADS-B
Tue 03:03:32 PM 38.2690 -120.3230 78° East 519 597 28,700 1,271 Climbing FlightAware ADS-B
Tue 03:04:13 PM 38.2890 -120.2070 78° East 517 595 29,700 1,333 Climbing FlightAware ADS-B
Tue 03:04:53 PM 38.3090 -120.0860 78° East 519 597 30,500 1,286 Climbing FlightAware ADS-B
Tue 03:05:37 PM 38.3310 -119.9530 78° East 517 595 31,500 1,152 Climbing FlightAware ADS-B
Tue 03:06:32 PM 38.3570 -119.7920 78° East 523 602 32,400 865 Climbing FlightAware ADS-B
Tue 03:07:28 PM 38.3850 -119.6220 78° East 529 609 33,100 875 Climbing FlightAware ADS-B
Tue 03:08:08 PM 38.4040 -119.4980 79° East 530 610 33,800 1,012 Climbing FlightAware ADS-B
Tue 03:08:51 PM 38.4260 -119.3650 78° East 532 612 34,500 911 Climbing FlightAware ADS-B
Tue 03:09:27 PM 38.4430 -119.2530 79° East 534 615 35,000 309 Climbing FlightAware ADS-B
Tue 03:10:28 PM 38.4700 -119.0930 78° East 534 615 35,000  Level FlightAware ADS-B
Tue 03:10:52 PM 38.4810 -119.0300 77° East 534 615 35,000  Level FlightAware ADS-B
Tue 03:11:44 PM 38.5030 -118.8930 78° East 534 615 35,000  Level FlightAware ADS-B
Tue 03:12:20 PM 38.5190 -118.7990 78° East 534 615 35,000  Level FlightAware ADS-B
Tue 03:12:57 PM 38.5350 -118.7020 78° East 534 615 35,000  Level FlightAware ADS-B
Tue 03:14:01 PM 38.4890 -118.9580 257° West 531 611 35,000  Level FlightAware ADS-B
Tue 03:14:36 PM 38.5030 -118.8670 79° East 531 611 35,000  Level FlightAware ADS-B
Tue 03:15:17 PM 38.5200 -118.7590 79° East 531 611 35,000  Level FlightAware ADS-B
Tue 03:16:10 PM 38.5410 -118.6200 79° East 531 611 35,000  Level FlightAware ADS-B
Tue 03:16:46 PM 38.5550 -118.5260 79° East 531 611 35,000  Level FlightAware ADS-B
Tue 03:17:25 PM 38.5710 -118.4240 79° East 531 611 35,000  Level FlightAware ADS-B
Tue 03:18:14 PM 38.5900 -118.2950 79° East 531 611 35,000  Level FlightAware ADS-B
Tue 03:18:50 PM 38.6040 -118.2010 79° East 531 611 35,000  Level FlightAware ADS-B
Tue 03:19:38 PM 38.6230 -118.0750 79° East 531 611 35,000  Level FlightAware ADS-B
Tue 03:20:34 PM 38.6460 -117.9280 79° East 531 611 35,000  Level FlightAware ADS-B
Tue 03:21:09 PM 38.6600 -117.8360 79° East 531 611 35,000  Level FlightAware ADS-B
Tue 03:21:59 PM 38.6800 -117.7050 79° East 531 611 35,000  Level FlightAware ADS-B
Tue 03:22:35 PM 38.6940 -117.6100 79° East 531 611 35,000  Level FlightAware ADS-B
Tue 03:23:23 PM 38.7130 -117.4840 79° East 531 611 35,000  Level FlightAware ADS-B
Tue 03:23:56 PM 38.8308 -116.5856 79° East 531 611 35,000  Level Salt Lake Center
Tue 03:24:58 PM 38.8564 -116.3989 80° East 531 611 35,000  Level Salt Lake Center
Tue 03:25:31 PM 38.8697 -116.2958 81° East 528 608 35,000  Level Oakland Center
Tue 03:25:59 PM 38.8808 -116.2128 80° East 529 609 35,000  Level Salt Lake Center
Tue 03:27:01 PM 38.9047 -116.0258 81° East 531 611 35,000  Level Salt Lake Center
Tue 03:28:03 PM 38.9283 -115.8400 81° East 528 608 35,000  Level Salt Lake Center
Tue 03:29:05 PM 38.9514 -115.6536 81° East 527 606 35,000  Level Salt Lake Center
Tue 03:30:06 PM 38.9747 -115.4672 81° East 528 608 35,000  Level Salt Lake Center
Tue 03:31:08 PM 38.9997 -115.2772 80° East 533 613 35,000  Level Salt Lake Center
Tue 03:32:10 PM 39.0264 -115.0547 81° East 528 608 35,000  Level Salt Lake Center
Tue 03:33:12 PM 39.0481 -114.8689 81° East 527 606 35,000  Level Salt Lake Center
Tue 03:34:14 PM 39.0697 -114.6825 81° East 526 605 35,000  Level Salt Lake Center
Tue 03:35:15 PM 39.0919 -114.4953 81° East 527 606 35,000  Level Salt Lake Center
Tue 03:36:17 PM 39.1131 -114.3086 82° East 528 608 35,000  Level Salt Lake Center
Tue 03:37:19 PM 39.1344 -114.1219 82° East 527 606 35,000  Level Salt Lake Center
Tue 03:38:21 PM 39.1556 -113.9347 82° East 528 608 35,000  Level Salt Lake Center
Tue 03:39:22 PM 39.1789 -113.7128 82° East 520 598 35,000  Level Salt Lake Center
Tue 03:40:24 PM 39.1992 -113.5253 82° East 525 604 35,000  Level Salt Lake Center
Tue 03:41:26 PM 39.2183 -113.3392 82° East 523 602 35,000  Level Salt Lake Center
Tue 03:42:28 PM 39.2378 -113.1533 82° East 523 602 35,000  Level Salt Lake Center
Tue 03:43:29 PM 39.2569 -112.9678 82° East 522 601 35,000  Level Salt Lake Center
Tue 03:44:31 PM 39.2758 -112.7822 82° East 521 600 35,000  Level Salt Lake Center
Tue 03:45:33 PM 39.2956 -112.5906 82° East 516 594 35,000  Level Salt Lake Center
Tue 03:46:34 PM 39.3417 -112.4172 71° East 518 596 35,000  Level Salt Lake Center
Tue 03:47:36 PM 39.3997 -112.2447 66° East 523 602 35,000 15 Level Salt Lake Center
Tue 03:53:17 PM 39.7530 -111.2640 66° East 506 582 35,100  Climbing FlightAware ADS-B
Tue 03:54:13 PM 39.8080 -111.1090 65° Northeast 506 582 35,000 -65 Descending FlightAware ADS-B
Tue 03:54:50 PM 39.8440 -111.0060 65° Northeast 506 582 35,000  Level FlightAware ADS-B
Tue 03:55:53 PM 39.9050 -110.8330 65° Northeast 504 580 35,000  Level FlightAware ADS-B
Tue 03:56:33 PM 39.9420 -110.7270 65° Northeast 505 581 35,000  Level FlightAware ADS-B
Tue 03:57:14 PM 39.9830 -110.6100 65° Northeast 504 580 35,000  Level FlightAware ADS-B
Tue 03:57:55 PM 40.0230 -110.4940 66° East 504 580 35,000  Level FlightAware ADS-B
Tue 03:58:40 PM 40.0630 -110.3780 66° East 504 580 35,000  Level FlightAware ADS-B
Tue 03:59:22 PM 40.1050 -110.2540 66° East 505 581 35,000  Level FlightAware ADS-B
Tue 04:00:04 PM 40.1390 -110.1520 66° East 506 582 35,000  Level FlightAware ADS-B
Tue 04:00:44 PM 40.1660 -110.0150 75° East 511 588 35,000  Level FlightAware ADS-B
Tue 04:01:32 PM 40.1860 -109.8690 80° East 513 590 35,000 67 Level FlightAware ADS-B
Tue 04:02:14 PM 40.2040 -109.7440 79° East 516 594 35,100  Climbing FlightAware ADS-B
Tue 04:02:52 PM 40.2200 -109.6250 80° East 519 597 35,000 -72 Descending FlightAware ADS-B
Tue 04:03:37 PM 40.2390 -109.4880 80° East 520 598 35,000  Level FlightAware ADS-B
Tue 04:04:20 PM 40.2580 -109.3520 80° East 521 600 35,000  Level FlightAware ADS-B
Tue 04:04:59 PM 40.2740 -109.2390 79° East 522 601 35,000  Level FlightAware ADS-B
Tue 04:05:36 PM 40.2900 -109.1150 80° East 521 600 35,000  Level FlightAware ADS-B
Tue 04:06:20 PM 40.3090 -108.9800 80° East 520 598 35,000  Level FlightAware ADS-B
Tue 04:06:58 PM 40.3250 -108.8600 80° East 520 598 35,000  Level FlightAware ADS-B
Tue 04:07:44 PM 40.3430 -108.7220 80° East 520 598 35,000  Level FlightAware ADS-B
Tue 04:08:20 PM 40.3580 -108.6070 80° East 519 597 35,000  Level FlightAware ADS-B
Tue 04:09:06 PM 40.3760 -108.4650 81° East 518 596 35,000  Level FlightAware ADS-B
Tue 04:09:50 PM 40.3940 -108.3280 80° East 517 595 35,000  Level FlightAware ADS-B
Tue 04:10:46 PM 40.4160 -108.1580 80° East 514 592 35,000  Level FlightAware ADS-B
Tue 04:11:36 PM 40.4340 -108.0160 81° East 511 588 35,000  Level FlightAware ADS-B
Tue 04:12:15 PM 40.4480 -107.8970 81° East 508 585 35,000  Level FlightAware ADS-B
Tue 04:12:55 PM 40.4640 -107.7690 81° East 505 581 35,000  Level FlightAware ADS-B
Tue 04:13:41 PM 40.4810 -107.6300 81° East 504 580 35,000  Level FlightAware ADS-B
Tue 04:14:18 PM 40.4940 -107.5240 81° East 503 579 35,000  Level FlightAware ADS-B
Tue 04:15:04 PM 40.5110 -107.3800 81° East 504 580 35,000  Level FlightAware ADS-B
Tue 04:15:47 PM 40.5360 -107.2490 76° East 511 588 35,000  Level FlightAware ADS-B
Tue 04:16:26 PM 40.5600 -107.1640 70° East 511 588 35,000  Level FlightAware ADS-B
Tue 04:17:12 PM 40.6070 -106.9990 69° East 510 587 35,000  Level FlightAware ADS-B
Tue 04:17:53 PM 40.6400 -106.8840 69° East 509 586 35,000  Level FlightAware ADS-B
Tue 04:18:31 PM 40.6700 -106.7760 70° East 505 581 35,000  Level FlightAware ADS-B
Tue 04:19:11 PM 40.7020 -106.6630 69° East 503 579 35,000  Level FlightAware ADS-B
Tue 04:19:58 PM 40.7410 -106.5220 70° East 502 578 35,000  Level FlightAware ADS-B
Tue 04:20:42 PM 40.7770 -106.3950 69° East 502 578 35,000  Level FlightAware ADS-B
Tue 04:21:20 PM 40.8060 -106.2860 71° East 502 578 35,000  Level FlightAware ADS-B
Tue 04:22:06 PM 40.8430 -106.1540 70° East 499 574 35,000  Level FlightAware ADS-B
Tue 04:22:46 PM 40.8740 -106.0410 70° East 496 571 35,000  Level FlightAware ADS-B
Tue 04:23:31 PM 40.9080 -105.9130 71° East 497 572 35,000 72 Level FlightAware ADS-B
Tue 04:24:09 PM 40.9380 -105.8050 70° East 494 568 35,100  Climbing FlightAware ADS-B
Tue 04:24:53 PM 40.9710 -105.6820 70° East 499 574 35,000 -61 Descending FlightAware ADS-B
Tue 04:25:47 PM 40.9960 -105.5860 71° East 499 574 35,000  Level FlightAware ADS-B
Tue 04:26:32 PM 41.0340 -105.3890 76° East 498 573 35,000  Level FlightAware ADS-B
Tue 04:27:10 PM 41.0560 -105.2750 76° East 500 575 35,000  Level FlightAware ADS-B
Tue 04:27:55 PM 41.0820 -105.1450 75° East 500 575 35,000  Level FlightAware ADS-B
Tue 04:28:13 PM 41.0930 -105.0890 75° East 503 579 35,000  Level FlightAware ADS-B
Tue 04:28:43 PM 41.1108 -105.0000 75° East 505 581 35,000  Level FlightAware ADS-B
Tue 04:29:13 PM 41.1289 -104.9100 75° East 507 583 35,000  Level FlightAware ADS-B
Tue 04:29:51 PM 41.1514 -104.7950 75° East 510 587 35,000  Level FlightAware ADS-B
Tue 04:30:22 PM 41.1700 -104.7000 75° East 512 589 35,000  Level FlightAware ADS-B
Tue 04:30:53 PM 41.1873 -104.6070 76° East 512 589 35,000  Level FlightAware ADS-B
Tue 04:31:23 PM 41.2042 -104.5160 76° East 512 589 35,000  Level FlightAware ADS-B
Tue 04:31:53 PM 41.2211 -104.4240 76° East 513 590 35,000  Level FlightAware ADS-B
Tue 04:32:23 PM 41.2382 -104.3320 76° East 513 590 35,000  Level FlightAware ADS-B
Tue 04:32:53 PM 41.2552 -104.2390 76° East 514 592 35,000  Level FlightAware ADS-B
Tue 04:33:10 PM 41.2645 -104.1870 77° East 514 592 35,000  Level FlightAware ADS-B
Tue 04:33:20 PM 41.2686 -104.1560 80° East 510 587 35,000  Level FlightAware ADS-B
Tue 04:33:31 PM 41.2715 -104.1230 83° East 508 585 35,000  Level FlightAware ADS-B
Tue 04:34:01 PM 41.2764 -104.0300 86° East 508 585 35,000  Level FlightAware ADS-B
Tue 04:34:32 PM 41.2804 -103.9340 87° East 509 586 35,000  Level FlightAware ADS-B
Tue 04:35:02 PM 41.2851 -103.8400 86° East 512 589 35,000  Level FlightAware ADS-B
Tue 04:35:32 PM 41.2900 -103.7450 86° East 515 593 35,000  Level FlightAware ADS-B
Tue 04:36:04 PM 41.2947 -103.6450 86° East 518 596 35,000 95 Level FlightAware ADS-B
Tue 04:36:35 PM 41.2987 -103.5460 87° East 520 598 35,100  Climbing FlightAware ADS-B
Tue 04:36:56 PM 41.3012 -103.4810 87° East 523 602 35,000 -194 Descending FlightAware ADS-B
Tue 04:37:06 PM 41.3040 -103.4490 83° East 528 608 35,000  Level FlightAware ADS-B
Tue 04:37:27 PM 41.3144 -103.3810 78° East 532 612 35,000  Level FlightAware ADS-B
Tue 04:37:57 PM 41.3314 -103.2850 77° East 533 613 35,000  Level FlightAware ADS-B
Tue 04:38:27 PM 41.3485 -103.1900 76° East 533 613 35,000  Level FlightAware ADS-B
Tue 04:39:22 PM 41.3784 -103.0130 77° East 532 612 35,000  Level FlightAware ADS-B
Tue 04:39:54 PM 41.3949 -102.9120 78° East 530 610 35,000  Level FlightAware ADS-B
Tue 04:40:29 PM 41.4132 -102.8010 78° East 530 610 35,000  Level FlightAware ADS-B
Tue 04:41:09 PM 41.4357 -102.6760 76° East 528 608 35,000  Level FlightAware ADS-B
Tue 04:41:39 PM 41.4528 -102.5810 76° East 526 605 35,000  Level FlightAware ADS-B
Tue 04:42:11 PM 41.4711 -102.4790 77° East 522 601 35,000  Level FlightAware ADS-B
Tue 04:42:42 PM 41.4879 -102.3830 77° East 517 595 35,000  Level FlightAware ADS-B
Tue 04:43:13 PM 41.5048 -102.2870 77° East 513 590 35,000  Level FlightAware ADS-B
Tue 04:43:44 PM 41.5214 -102.1940 77° East 511 588 35,000  Level FlightAware ADS-B
Tue 04:44:17 PM 41.5391 -102.0930 77° East 508 585 35,000  Level FlightAware ADS-B
Tue 04:44:48 PM 41.5554 -102.0000 77° East 505 581 35,000  Level FlightAware ADS-B
Tue 04:45:44 PM 41.5845 -101.8300 77° East 504 580 35,000  Level FlightAware ADS-B
Tue 04:46:14 PM 41.6002 -101.7380 77° East 507 583 35,000  Level FlightAware ADS-B
Tue 04:46:45 PM 41.6164 -101.6420 77° East 508 585 35,000  Level FlightAware ADS-B
Tue 04:47:44 PM 41.6469 -101.4620 77° East 508 585 35,000  Level FlightAware ADS-B
Tue 04:48:17 PM 41.6589 -101.3908 77° East 507 583 35,000  Level Denver Center
Tue 04:49:19 PM 41.6939 -101.1844 77° East 508 585 35,000  Level Denver Center
Tue 04:50:20 PM 41.7236 -101.0050 77° East 511 588 35,000  Level Denver Center
Tue 04:51:22 PM 41.7572 -100.7969 78° East 510 587 35,000  Level Denver Center
Tue 04:52:24 PM 41.7853 -100.6206 78° East 506 582 35,000  Level Denver Center
Tue 04:53:26 PM 41.8136 -100.4403 78° East 513 590 35,000  Level Denver Center
Tue 04:54:27 PM 41.8467 -100.2306 78° East 513 590 35,000  Level Denver Center
Tue 04:55:29 PM 41.8744 -100.0528 78° East 510 587 35,000  Level Denver Center
Tue 04:56:31 PM 41.9064 -99.8467 78° East 504 580 35,000  Level Denver Center
Tue 04:57:32 PM 41.9331 -99.6683 79° East 503 579 35,000  Level Denver Center
Tue 04:58:09 PM 41.9506 -99.5592 78° East 502 578 35,000  Level Minneapolis Center
Tue 04:59:11 PM 41.9769 -99.3761 79° East 498 573 35,000  Level Minneapolis Center
Tue 04:59:36 PM 41.9881 -99.3025 78° East 498 573 35,000  Level Denver Center
Tue 05:00:37 PM 42.0144 -99.1208 79° East 494 568 35,000  Level Denver Center
Tue 05:01:15 PM 42.0308 -99.0144 78° East 490 564 35,000  Level Minneapolis Center
Tue 05:02:18 PM 42.0569 -98.8328 79° East 492 566 35,000  Level Minneapolis Center
Tue 05:03:20 PM 42.0883 -98.6133 79° East 495 570 35,000  Level Minneapolis Center
Tue 05:04:22 PM 42.1136 -98.4322 79° East 493 567 35,000  Level Minneapolis Center
Tue 05:05:24 PM 42.1392 -98.2506 79° East 493 567 35,000  Level Minneapolis Center
Tue 05:06:26 PM 42.1636 -98.0664 80° East 497 572 35,000  Level Minneapolis Center
Tue 05:07:28 PM 42.1892 -97.8803 79° East 502 578 35,000  Level Minneapolis Center
Tue 05:08:30 PM 42.2156 -97.6903 79° East 505 581 35,000  Level Minneapolis Center
Tue 05:13:54 PM 42.3450 -96.6650 79° East 499 574 35,000  Level FlightAware ADS-B
Tue 05:14:35 PM 42.3600 -96.5470 80° East 500 575 35,000  Level FlightAware ADS-B
Tue 05:15:12 PM 42.3730 -96.4500 80° East 500 575 35,000  Level FlightAware ADS-B
Tue 05:15:52 PM 42.3860 -96.3450 80° East 500 575 35,000  Level FlightAware ADS-B
Tue 05:16:40 PM 42.4030 -96.2190 80° East 500 575 35,000  Level FlightAware ADS-B
Tue 05:17:17 PM 42.4150 -96.1220 80° East 500 575 35,000  Level FlightAware ADS-B
Tue 05:18:03 PM 42.4310 -96.0020 80° East 500 575 35,000  Level FlightAware ADS-B
Tue 05:18:39 PM 42.4430 -95.9070 80° East 500 575 35,000  Level FlightAware ADS-B
Tue 05:19:27 PM 42.4600 -95.7810 80° East 500 575 35,000  Level FlightAware ADS-B
Tue 05:20:03 PM 42.4720 -95.6870 80° East 500 575 35,000  Level FlightAware ADS-B
Tue 05:20:54 PM 42.4890 -95.5530 80° East 500 575 35,000  Level FlightAware ADS-B
Tue 05:21:30 PM 42.5010 -95.4580 80° East 500 575 35,000  Level FlightAware ADS-B
Tue 05:22:19 PM 42.5180 -95.3290 80° East 500 575 35,000  Level FlightAware ADS-B
Tue 05:22:59 PM 42.5400 -94.9770 85° East 504 580 35,000  Level FlightAware ADS-B
Tue 05:23:56 PM 42.5580 -94.8100 82° East 504 580 35,000  Level FlightAware ADS-B
Tue 05:24:30 PM 42.5690 -94.7190 81° East 504 580 35,000  Level FlightAware ADS-B
Tue 05:25:18 PM 42.5840 -94.5920 81° East 504 580 35,000  Level FlightAware ADS-B
Tue 05:25:56 PM 42.5950 -94.4910 82° East 504 580 35,000  Level FlightAware ADS-B
Tue 05:26:58 PM 42.6150 -94.3260 81° East 504 580 35,000  Level FlightAware ADS-B
Tue 05:27:37 PM 42.6140 -94.1050 90° East 504 580 35,000  Level FlightAware ADS-B
Tue 05:28:21 PM 42.6130 -93.9690 91° East 505 581 35,000  Level FlightAware ADS-B
Tue 05:28:59 PM 42.6130 -93.8450 90° East 505 581 35,000  Level FlightAware ADS-B
Tue 05:29:41 PM 42.6140 -93.7140 89° East 505 581 35,000  Level FlightAware ADS-B
Tue 05:30:29 PM 42.6150 -93.5620 89° East 505 581 35,000  Level FlightAware ADS-B
Tue 05:31:07 PM 42.6160 -93.4400 89° East 505 581 35,000  Level FlightAware ADS-B
Tue 05:31:53 PM 42.6170 -93.2960 89° East 505 581 35,000  Level FlightAware ADS-B
Tue 05:32:33 PM 42.6170 -93.1690 90° East 505 581 35,000  Level FlightAware ADS-B
Tue 05:33:11 PM 42.6170 -93.0490 90° East 505 581 35,000  Level FlightAware ADS-B
Tue 05:33:55 PM 42.6160 -92.9090 91° East 504 580 35,000  Level FlightAware ADS-B
Tue 05:34:39 PM 42.6160 -92.7740 90° East 503 579 35,000 552 Level FlightAware ADS-B
Tue 05:35:22 PM 42.6160 -92.6400 90° East 502 578 35,800 951 Climbing FlightAware ADS-B
Tue 05:36:01 PM 42.6180 -92.5130 89° East 500 575 36,300 911 Climbing FlightAware ADS-B
Tue 05:36:41 PM 42.6200 -92.3970 89° East 497 572 37,000 488 Climbing FlightAware ADS-B
Tue 05:37:27 PM 42.6220 -92.2480 89° East 489 563 37,000  Level FlightAware ADS-B
Tue 05:38:11 PM 42.6250 -92.1160 88° East 490 564 37,000  Level FlightAware ADS-B
Tue 05:38:53 PM 42.6260 -91.9860 89° East 494 568 37,000 71 Level FlightAware ADS-B
Tue 05:39:35 PM 42.6280 -91.8540 89° East 497 572 37,100  Climbing FlightAware ADS-B
Tue 05:40:15 PM 42.6300 -91.7300 89° East 501 577 37,000 -73 Descending FlightAware ADS-B
Tue 05:40:57 PM 42.6310 -91.5970 89° East 503 579 37,000  Level FlightAware ADS-B
Tue 05:41:39 PM 42.6320 -91.4630 89° East 504 580 37,000  Level FlightAware ADS-B
Tue 05:42:23 PM 42.6340 -91.3250 89° East 505 581 37,000  Level FlightAware ADS-B
Tue 05:43:05 PM 42.6350 -91.1920 89° East 506 582 37,000  Level FlightAware ADS-B
Tue 05:43:41 PM 42.6360 -91.0770 89° East 507 583 37,000  Level FlightAware ADS-B
Tue 05:44:27 PM 42.6360 -90.9320 90° East 507 583 37,000  Level FlightAware ADS-B
Tue 05:45:07 PM 42.6370 -90.8070 89° East 507 583 37,000  Level FlightAware ADS-B
Tue 05:45:45 PM 42.6370 -90.6830 90° East 506 582 37,000 68 Level FlightAware ADS-B
Tue 05:46:35 PM 42.6380 -90.5280 89° East 505 581 37,100  Climbing FlightAware ADS-B
Tue 05:47:11 PM 42.6380 -90.4150 90° East 504 580 37,000 -73 Descending FlightAware ADS-B
Tue 05:47:57 PM 42.6380 -90.2710 90° East 504 580 37,000  Level FlightAware ADS-B
Tue 05:48:37 PM 42.6380 -90.1410 90° East 504 580 37,000  Level FlightAware ADS-B
Tue 05:49:17 PM 42.6370 -90.0160 91° East 504 580 37,000  Level FlightAware ADS-B
Tue 05:50:03 PM 42.6370 -89.8700 90° East 505 581 37,000  Level FlightAware ADS-B
Tue 05:50:47 PM 42.6360 -89.7300 91° East 505 581 37,000  Level FlightAware ADS-B
Tue 05:51:27 PM 42.6350 -89.6060 91° East 505 581 37,000  Level FlightAware ADS-B
Tue 05:52:09 PM 42.6340 -89.4720 91° East 505 581 37,000  Level FlightAware ADS-B
Tue 05:52:49 PM 42.6330 -89.3450 91° East 505 581 37,000  Level FlightAware ADS-B
Tue 05:53:33 PM 42.6320 -89.2050 91° East 506 582 37,000  Level FlightAware ADS-B
Tue 05:54:15 PM 42.6310 -89.0730 91° East 507 583 37,000  Level FlightAware ADS-B
Tue 05:54:55 PM 42.6290 -88.9470 91° East 507 583 37,000  Level FlightAware ADS-B
Tue 05:55:39 PM 42.6270 -88.8060 91° East 507 583 37,000 69 Level FlightAware ADS-B
Tue 05:56:22 PM 42.6250 -88.6700 91° East 507 583 37,100  Climbing FlightAware ADS-B
Tue 05:57:03 PM 42.6230 -88.5420 91° East 509 586 37,000 -73 Descending FlightAware ADS-B
Tue 05:57:44 PM 42.6210 -88.4070 91° East 509 586 37,000  Level FlightAware ADS-B
Tue 05:58:26 PM 42.6190 -88.2760 91° East 509 586 37,000  Level FlightAware ADS-B
Tue 05:59:10 PM 42.6160 -88.1360 92° East 510 587 37,000  Level FlightAware ADS-B
Tue 05:59:54 PM 42.6130 -87.9940 92° East 511 588 37,000  Level FlightAware ADS-B
Tue 06:00:33 PM 42.6110 -87.8830 91° East 512 589 37,000  Level FlightAware ADS-B
Tue 06:01:12 PM 42.6080 -87.7480 92° East 511 588 37,000  Level FlightAware ADS-B
Tue 06:01:56 PM 42.6040 -87.6020 92° East 511 588 37,000  Level FlightAware ADS-B
Tue 06:02:41 PM 42.6010 -87.4590 92° East 514 592 37,000  Level FlightAware ADS-B
Tue 06:03:21 PM 42.5970 -87.3300 92° East 517 595 37,000  Level FlightAware ADS-B
Tue 06:04:05 PM 42.5940 -87.1880 92° East 519 597 37,000  Level FlightAware ADS-B
Tue 06:04:40 PM 42.5900 -87.0780 93° East 521 600 37,000  Level FlightAware ADS-B
Tue 06:05:28 PM 42.5860 -86.9200 92° East 524 603 37,000  Level FlightAware ADS-B
Tue 06:06:10 PM 42.5810 -86.7810 93° East 526 605 37,000  Level FlightAware ADS-B
Tue 06:06:53 PM 42.5770 -86.6400 92° East 528 608 37,000  Level FlightAware ADS-B
Tue 06:07:34 PM 42.5720 -86.5060 93° East 529 609 37,000  Level FlightAware ADS-B
Tue 06:08:16 PM 42.5680 -86.3690 92° East 530 610 37,000  Level FlightAware ADS-B
Tue 06:08:55 PM 42.5630 -86.2360 93° East 530 610 37,000  Level FlightAware ADS-B
Tue 06:09:56 PM 42.5550 -86.0310 93° East 530 610 37,000  Level FlightAware ADS-B
Tue 06:10:32 PM 42.5520 -85.9570 93° East 530 610 37,000  Level FlightAware ADS-B
Tue 06:11:16 PM 42.5450 -85.7640 93° East 527 606 37,000  Level FlightAware ADS-B
Tue 06:12:00 PM 42.5390 -85.6220 93° East 523 602 37,000  Level FlightAware ADS-B
Tue 06:12:41 PM 42.5330 -85.4900 93° East 519 597 37,000  Level FlightAware ADS-B
Tue 06:13:26 PM 42.5270 -85.3430 93° East 515 593 37,000  Level FlightAware ADS-B
Tue 06:14:06 PM 42.5210 -85.2150 94° East 513 590 37,000 75 Level FlightAware ADS-B
Tue 06:14:46 PM 42.5150 -85.0880 94° East 513 590 37,100  Climbing FlightAware ADS-B
Tue 06:15:26 PM 42.5090 -84.9570 94° East 513 590 37,000 -68 Descending FlightAware ADS-B
Tue 06:16:14 PM 42.5020 -84.8090 94° East 513 590 37,000  Level FlightAware ADS-B
Tue 06:16:54 PM 42.4950 -84.6770 94° East 514 592 37,000  Level FlightAware ADS-B
Tue 06:17:36 PM 42.4880 -84.5430 94° East 515 593 37,000  Level FlightAware ADS-B
Tue 06:18:20 PM 42.4810 -84.4010 94° East 516 594 37,000  Level FlightAware ADS-B
Tue 06:19:00 PM 42.4740 -84.2710 94° East 516 594 37,000  Level FlightAware ADS-B
Tue 06:19:43 PM 42.4670 -84.1440 94° East 516 594 37,000  Level FlightAware ADS-B
Tue 06:20:25 PM 42.4590 -84.0020 94° East 515 593 37,000  Level FlightAware ADS-B
Tue 06:21:01 PM 42.4530 -83.8880 94° East 513 590 37,000  Level FlightAware ADS-B
Tue 06:21:47 PM 42.4440 -83.7400 95° East 511 588 37,000  Level FlightAware ADS-B
Tue 06:22:29 PM 42.4370 -83.6090 94° East 509 586 37,000  Level FlightAware ADS-B
Tue 06:23:11 PM 42.4280 -83.4740 95° East 508 585 37,000  Level FlightAware ADS-B
Tue 06:23:55 PM 42.4200 -83.3350 94° East 506 582 37,000  Level FlightAware ADS-B
Tue 06:24:33 PM 42.4120 -83.2140 95° East 506 582 37,000  Level FlightAware ADS-B
Tue 06:25:17 PM 42.4040 -83.0770 94° East 506 582 37,000  Level FlightAware ADS-B
Tue 06:25:56 PM 42.3960 -82.9600 95° East 507 583 37,000  Level FlightAware ADS-B
Tue 06:26:39 PM 42.3870 -82.8180 95° East 508 585 37,000  Level FlightAware ADS-B
Tue 06:27:19 PM 42.3780 -82.6930 96° East 509 586 37,000  Level FlightAware ADS-B
Tue 06:28:07 PM 42.3720 -82.5390 93° East 506 582 37,000  Level FlightAware ADS-B
Tue 06:28:45 PM 42.3680 -82.4200 93° East 508 585 37,000  Level FlightAware ADS-B
Tue 06:29:28 PM 42.3630 -82.2860 93° East 510 587 37,000 63 Level FlightAware ADS-B
Tue 06:30:21 PM 42.3570 -82.1400 93° East 512 589 37,100  Climbing FlightAware ADS-B
Tue 06:31:08 PM 42.3500 -81.9860 93° East 516 594 37,000  Descending FlightAware ADS-B
Tue 06:31:46 PM 42.3450 -81.8630 93° East 516 594 37,100  Climbing FlightAware ADS-B
Tue 06:32:28 PM 42.3380 -81.7270 94° East 516 594 37,000 -61 Descending FlightAware ADS-B
Tue 06:33:25 PM 42.3300 -81.5500 93° East 515 593 37,000  Level FlightAware ADS-B
Tue 06:34:04 PM 42.3230 -81.4130 94° East 514 592 37,000  Level FlightAware ADS-B
Tue 06:34:54 PM 42.3150 -81.2480 94° East 513 590 37,000  Level FlightAware ADS-B
Tue 06:35:31 PM 42.3090 -81.1200 94° East 513 590 37,000  Level FlightAware ADS-B
Tue 06:36:18 PM 42.3010 -80.9730 94° East 513 590 37,000  Level FlightAware ADS-B
Tue 06:36:59 PM 42.2940 -80.8400 94° East 513 590 37,000  Level FlightAware ADS-B
Tue 06:37:41 PM 42.2870 -80.7060 94° East 514 592 37,000  Level FlightAware ADS-B
Tue 06:38:16 PM 42.2830 -80.6280 94° East 515 593 37,000  Level FlightAware ADS-B
Tue 06:38:58 PM 42.2740 -80.4780 95° East 516 594 37,000 -140 Level FlightAware ADS-B
Tue 06:39:42 PM 42.2670 -80.3500 94° East 519 597 36,800 -396 Descending FlightAware ADS-B
Tue 06:40:29 PM 42.2560 -80.1680 95° East 525 604 36,400 -494 Descending FlightAware ADS-B
Tue 06:41:07 PM 42.2490 -80.0450 94° East 523 602 36,100 -289 Descending FlightAware ADS-B
Tue 06:41:52 PM 42.2390 -79.9000 95° East 520 598 36,000 -69 Descending FlightAware ADS-B
Tue 06:42:34 PM 42.2230 -79.7720 100° East 527 606 36,000  Level FlightAware ADS-B
Tue 06:43:14 PM 42.2010 -79.6380 102° East 531 611 36,000  Level FlightAware ADS-B
Tue 06:43:54 PM 42.1800 -79.5180 103° East 532 612 36,000  Level FlightAware ADS-B
Tue 06:44:39 PM 42.1530 -79.3650 103° East 533 613 36,000  Level FlightAware ADS-B
Tue 06:45:19 PM 42.1290 -79.2360 104° East 533 613 36,000  Level FlightAware ADS-B
Tue 06:46:04 PM 42.1040 -79.1020 104° East 532 612 36,000  Level FlightAware ADS-B
Tue 06:46:44 PM 42.0790 -78.9640 104° East 528 608 36,000  Level FlightAware ADS-B
Tue 06:47:26 PM 42.0620 -78.8770 105° East 529 609 36,000  Level FlightAware ADS-B
Tue 06:48:09 PM 42.0290 -78.7010 104° East 521 600 36,000  Level FlightAware ADS-B
Tue 06:48:51 PM 42.0020 -78.5600 104° East 517 595 36,000  Level FlightAware ADS-B
Tue 06:49:33 PM 41.9780 -78.4310 104° East 514 592 36,000  Level FlightAware ADS-B
Tue 06:50:13 PM 41.9530 -78.3030 105° East 512 589 36,000  Level FlightAware ADS-B
Tue 06:50:57 PM 41.9270 -78.1690 105° East 510 587 36,000  Level FlightAware ADS-B
Tue 06:51:41 PM 41.9010 -78.0360 105° East 510 587 36,000  Level FlightAware ADS-B
Tue 06:52:20 PM 41.8780 -77.9200 105° East 511 588 36,000  Level FlightAware ADS-B
Tue 06:53:05 PM 41.8460 -77.7810 107° East 514 592 36,000  Level FlightAware ADS-B
Tue 06:53:46 PM 41.8140 -77.6580 109° East 514 592 36,000  Level FlightAware ADS-B
Tue 06:54:26 PM 41.7820 -77.5370 109° East 515 593 36,000  Level FlightAware ADS-B
Tue 06:55:11 PM 41.7460 -77.4030 110° East 516 594 36,000  Level FlightAware ADS-B
Tue 06:55:53 PM 41.7140 -77.2830 110° East 519 597 36,000  Level FlightAware ADS-B
Tue 06:56:32 PM 41.6810 -77.1610 110° East 520 598 36,000  Level FlightAware ADS-B
Tue 06:57:09 PM 41.6510 -77.0500 110° East 522 601 36,000  Level FlightAware ADS-B
Tue 06:57:54 PM 41.6160 -76.9190 110° East 524 603 36,000  Level FlightAware ADS-B
Tue 06:58:39 PM 41.5810 -76.7910 110° East 526 605 36,000  Level FlightAware ADS-B
Tue 06:59:19 PM 41.5440 -76.6560 110° East 528 608 36,000  Level FlightAware ADS-B
Tue 06:59:59 PM 41.5100 -76.5330 110° East 530 610 36,000  Level FlightAware ADS-B
Tue 07:00:44 PM 41.4730 -76.3980 110° East 529 609 36,000  Level FlightAware ADS-B
Tue 07:01:24 PM 41.4380 -76.2730 110° East 531 611 36,000 -414 Level FlightAware ADS-B
Tue 07:02:11 PM 41.3960 -76.1260 111° Southeast 527 606 35,400 -1,379 Descending FlightAware ADS-B
Tue 07:02:51 PM 41.3630 -76.0070 110° East 530 610 34,000 -2,400 Descending FlightAware ADS-B
Tue 07:03:31 PM 41.3280 -75.8830 111° Southeast 532 612 32,200 -2,929 Descending FlightAware ADS-B
Tue 07:04:15 PM 41.2900 -75.7510 111° Southeast 536 617 29,900 -3,488 Descending FlightAware ADS-B
Tue 07:04:57 PM 41.2490 -75.6170 112° Southeast 542 624 27,200 -3,300 Descending FlightAware ADS-B
Tue 07:05:35 PM 41.2120 -75.5070 114° Southeast 535 616 25,500 -2,850 Descending FlightAware ADS-B
Tue 07:06:17 PM 41.1690 -75.3770 114° Southeast 535 616 23,400 -1,800 Descending FlightAware ADS-B
Tue 07:06:55 PM 41.1300 -75.2640 115° Southeast 522 601 23,100 -300 Descending FlightAware ADS-B
Tue 07:07:37 PM 41.0890 -75.1420 114° Southeast 519 597 23,000 -71 Descending FlightAware ADS-B
Tue 07:08:20 PM 41.0470 -75.0180 114° Southeast 523 602 23,000  Level FlightAware ADS-B
Tue 07:09:04 PM 41.0060 -74.8890 113° Southeast 523 602 23,000 -146 Level FlightAware ADS-B
Tue 07:09:42 PM 40.9850 -74.7700 103° East 507 583 22,800 -929 Descending FlightAware ADS-B
Tue 07:10:28 PM 40.9690 -74.6300 99° East 500 575 21,700 -1,500 Descending FlightAware ADS-B
Tue 07:11:02 PM 40.9590 -74.5290 97° East 490 564 20,800 -1,579 Descending FlightAware ADS-B
Tue 07:11:44 PM 40.9450 -74.4060 99° East 479 551 19,700 -1,174 Descending FlightAware ADS-B
Tue 07:12:34 PM 40.9300 -74.2660 98° East 463 533 19,000 -467 Descending FlightAware ADS-B
Tue 07:13:14 PM 40.9150 -74.1600 101° East 410 472 19,000  Level FlightAware ADS-B
Tue 07:13:30 PM 40.9020 -74.1239 115° Southeast 435 501 19,000  Level FlightAware ADS-B
Tue 07:13:40 PM 40.8898 -74.1038 129° Southeast 386 444 19,000  Level FlightAware ADS-B
Tue 07:13:57 PM 40.8676 -74.0809 142° Southeast 372 428 19,000 -545 Level FlightAware ADS-B
Tue 07:14:13 PM 40.8430 -74.0665 156° South 362 417 18,700 -1,837 Descending FlightAware ADS-B
Tue 07:14:46 PM 40.7903 -74.0414 160° South 354 407 17,500 -2,286 Descending FlightAware ADS-B
Tue 07:15:16 PM 40.7470 -74.0210 160° South 347 399 16,300 -2,385 Descending FlightAware ADS-B
Tue 07:16:04 PM 40.6750 -73.9950 165° South 317 365 14,400 -2,093 Descending FlightAware ADS-B
Tue 07:16:42 PM 40.6210 -73.9950 180° South 322 371 13,300 -795 Descending FlightAware ADS-B
Tue 07:17:27 PM 40.5520 -73.9990 183° South 312 359 13,300  Level FlightAware ADS-B
Tue 07:18:08 PM 40.5040 -74.0030 184° South 303 349 13,300 -545 Level FlightAware ADS-B
Tue 07:18:22 PM 40.4750 -73.9990 174° South 310 357 12,800 -2,667 Descending FlightAware ADS-B
Tue 07:19:02 PM 40.4220 -73.9650 154° Southeast 322 371 10,900 -2,571 Descending FlightAware ADS-B
Tue 07:19:32 PM 40.3850 -73.9390 152° Southeast 316 364 9,800 -2,172 Descending FlightAware ADS-B
Tue 07:20:00 PM 40.3460 -73.9120 152° Southeast 309 356 8,800 -2,250 Descending FlightAware ADS-B
Tue 07:20:28 PM 40.3110 -73.8890 153° Southeast 304 350 7,700 -2,250 Descending FlightAware ADS-B
Tue 07:20:56 PM 40.2790 -73.8590 144° Southeast 305 351 6,700 -1,684 Descending FlightAware ADS-B
Tue 07:21:25 PM 40.2610 -73.8120 117° Southeast 306 352 6,100 -1,245 Descending FlightAware ADS-B
Tue 07:21:49 PM 40.2470 -73.7740 116° Southeast 308 354 5,600 -1,297 Descending FlightAware ADS-B
Tue 07:22:02 PM 40.2380 -73.7510 117° Southeast 307 353 5,300 -1,171 Descending FlightAware ADS-B
Tue 07:22:30 PM 40.2270 -73.7050 107° East 300 345 4,800 -1,000 Descending FlightAware ADS-B
Tue 07:22:50 PM 40.2340 -73.6760 72° East 290 334 4,500 -938 Descending FlightAware ADS-B
Tue 07:23:02 PM 40.2490 -73.6560 45° Northeast 284 327 4,300 -462 Descending FlightAware ADS-B
Tue 07:23:16 PM 40.2630 -73.6440 33° Northeast 280 322 4,300  Level FlightAware ADS-B
Tue 07:23:44 PM 40.2960 -73.6160 33° Northeast 281 323 4,300  Level FlightAware ADS-B
Tue 07:24:07 PM 40.3190 -73.5970 32° Northeast 281 323 4,300  Level FlightAware ADS-B
Tue 07:24:26 PM 40.3420 -73.5780 32° Northeast 281 323 4,300  Level FlightAware ADS-B
Tue 07:24:52 PM 40.3710 -73.5540 32° Northeast 283 326 4,300  Level FlightAware ADS-B
Tue 07:25:21 PM 40.4030 -73.5290 31° Northeast 279 321 4,300  Level FlightAware ADS-B
Tue 07:25:50 PM 40.4360 -73.5100 24° Northeast 276 318 4,300  Level FlightAware ADS-B
Tue 07:26:18 PM 40.4680 -73.4910 24° Northeast 273 314 4,300  Level FlightAware ADS-B
Tue 07:26:48 PM 40.5040 -73.4690 25° Northeast 275 316 4,300  Level FlightAware ADS-B
Tue 07:26:58 PM 40.5160 -73.4620 24° Northeast 275 316 4,300  Level FlightAware ADS-B
Tue 07:27:28 PM 40.5510 -73.4410 25° Northeast 271 312 4,300  Level FlightAware ADS-B
Tue 07:27:44 PM 40.5690 -73.4310 23° Northeast 271 312 4,300  Level FlightAware ADS-B
Tue 07:28:11 PM 40.6000 -73.4130 24° Northeast 273 314 4,300  Level FlightAware ADS-B
Tue 07:28:24 PM 40.6150 -73.4050 22° Northeast 267 307 4,300  Level FlightAware ADS-B
Tue 07:28:38 PM 40.6310 -73.4020 North 247 284 4,300  Level FlightAware ADS-B
Tue 07:29:08 PM 40.6640 -73.4000 North 231 266 4,300  Level FlightAware ADS-B
Tue 07:29:36 PM 40.6930 -73.3990 North 226 260 4,300  Level FlightAware ADS-B
Tue 07:29:58 PM 40.7160 -73.3980 North 224 258 4,300 -220 Level FlightAware ADS-B
Tue 07:30:58 PM 40.7620 -73.4280 334° Northwest 191 220 4,000 -545 Descending FlightAware ADS-B
Tue 07:31:26 PM 40.7740 -73.4570 299° West 184 212 3,500 -857 Descending FlightAware ADS-B
Tue 07:31:54 PM 40.7850 -73.4850 297° West 185 213 3,200 -286 Descending FlightAware ADS-B
Tue 07:32:08 PM 40.7880 -73.5000 285° West 185 213 3,300 -136 Climbing FlightAware ADS-B
Tue 07:32:38 PM 40.7850 -73.5300 262° West 189 217 3,100 -735 Descending FlightAware ADS-B
Tue 07:32:57 PM 40.7810 -73.5550 258° West 188 216 2,700 -923 Descending FlightAware ADS-B
Tue 07:33:30 PM 40.7770 -73.5930 262° West 191 220 2,300 -612 Descending FlightAware ADS-B
Tue 07:33:46 PM 40.7750 -73.6130 262° West 187 215 2,200  Descending FlightAware ADS-B
Tue 07:34:14 PM 40.7690 -73.6410 254° West 169 194 2,300 136 Climbing FlightAware ADS-B
Tue 07:34:30 PM 40.7630 -73.6540 239° Southwest 168 193 2,300  Level FlightAware ADS-B
Tue 07:34:57 PM 40.7460 -73.6730 220° Southwest 178 205 2,300 -220 Level FlightAware ADS-B
Tue 07:35:52 PM 40.7210 -73.6950 214° Southwest 165 190 2,000 -643 Descending FlightAware ADS-B
Tue 07:36:21 PM 40.6930 -73.7170 211° Southwest 143 165 1,400 -1,053 Descending FlightAware ADS-B
Tue 07:36:49 PM 40.6770 -73.7300 212° Southwest 149 171 1,000 -778 Descending FlightAware ADS-B
Tue 07:37:15 PM 40.6610 -73.7420 210° Southwest 149 171 700 -778 Descending FlightAware ADS-B
Tue 07:37:43 PM 40.6440 -73.7560 212° Southwest 148 170 300 -857 Descending FlightAware ADS-B
Tue 07:38:11 PM 40.6320 -73.7660 212° Southwest 68 78 -643 Descending FlightAware ADS-B
Tue 07:38:29 PM 40.6300 -73.7680 217° Southwest 27 31  Level FlightAware ADS-B
Tue 07:38:39 PM 40.6290 -73.7690 217° Southwest 16 18  Level FlightAware ADS-B
Tue 07:39:08 PM 40.6310 -73.7700 339° North 17 20  Level FlightAware ADS-B
Tue 07:39:25 PM 40.6320 -73.7690 37° Northeast 19 22  Level FlightAware ADS-B

Login

Don't have an account? Register now (free) for customized features, flight alerts, and more!